Time;durP1;ratioP1;P1;durP2;ratioP2;P2;SDS_P1;SDS_P2;PMS_P1;PMS_P2;Temp;Humidity;BMP_temperature;BMP_pressure;BME280_temperature;BME280_humidity;BME280_pressure;Samples;Min_cycle;Max_cycle;Signal;HPM_P1;HPM_P2
2021/06/03 00:01:20;;;;;;;3.17;2.88;;;;;;;;;;5074302;28;20032;-85
2021/06/03 00:03:45;;;;;;;4.95;2.83;;;;;;;;;;5075848;28;20467;-85
2021/06/03 00:06:10;;;;;;;4.95;3.13;;;;;;;;;;5060033;28;20017;-85
2021/06/03 00:08:36;;;;;;;8.40;2.72;;;;;;;;;;5074307;28;20529;-85
2021/06/03 00:11:09;;;;;;;6.30;3.90;;;;;;;;;;5074457;28;20016;-85
2021/06/03 00:13:36;;;;;;;5.35;3.60;;;;;;;;;;5075251;28;20048;-85
2021/06/03 00:16:03;;;;;;;5.82;3.10;;;;;;;;;;5071152;28;20090;-85
2021/06/03 00:18:28;;;;;;;7.43;3.58;;;;;;;;;;5072204;28;20463;-85
2021/06/03 00:20:55;;;;;;;6.43;3.20;;;;;;;;;;5074140;28;20050;-85
2021/06/03 00:23:20;;;;;;;5.07;3.10;;;;;;;;;;5073939;28;20043;-85
2021/06/03 00:25:45;;;;;;;6.28;3.38;;;;;;;;;;5075425;28;20009;-85
2021/06/03 00:28:11;;;;;;;4.40;3.35;;;;;;;;;;5075356;28;20016;-85
2021/06/03 00:30:36;;;;;;;5.80;3.65;;;;;;;;;;5062970;28;20023;-85
2021/06/03 00:33:01;;;;;;;5.40;3.63;;;;;;;;;;5070383;28;20020;-85
2021/06/03 00:35:26;;;;;;;3.58;2.90;;;;;;;;;;5071365;28;20056;-85
2021/06/03 00:37:52;;;;;;;5.50;3.15;;;;;;;;;;5075112;28;20021;-85
2021/06/03 00:40:18;;;;;;;7.63;3.22;;;;;;;;;;5073662;28;20098;-85
2021/06/03 00:42:44;;;;;;;3.75;3.10;;;;;;;;;;5073466;28;20028;-85
2021/06/03 00:45:11;;;;;;;7.38;3.22;;;;;;;;;;5073556;28;20115;-85
2021/06/03 00:47:37;;;;;;;5.75;3.03;;;;;;;;;;5058450;28;20075;-85
2021/06/03 00:50:13;;;;;;;3.50;3.20;;;;;;;;;;5050784;28;20357;-85
2021/06/03 00:52:38;;;;;;;7.15;3.67;;;;;;;;;;5053372;28;20383;-85
2021/06/03 00:55:04;;;;;;;4.35;3.45;;;;;;;;;;5053619;28;20108;-85
2021/06/03 00:57:29;;;;;;;5.15;3.30;;;;;;;;;;5053281;28;20025;-85
2021/06/03 00:59:54;;;;;;;4.07;3.20;;;;;;;;;;5054371;28;20391;-85
2021/06/03 01:02:19;;;;;;;5.20;3.40;;;;;;;;;;5053426;28;20163;-84
2021/06/03 01:04:45;;;;;;;6.35;3.58;;;;;;;;;;5053407;28;20032;-85
2021/06/03 01:07:10;;;;;;;6.15;3.47;;;;;;;;;;5052756;28;20376;-85
2021/06/03 01:09:40;;;;;;;5.45;3.40;;;;;;;;;;5053294;28;20021;-85
2021/06/03 01:12:11;;;;;;;6.15;3.60;;;;;;;;;;5053197;28;20357;-85
2021/06/03 01:14:39;;;;;;;4.50;3.45;;;;;;;;;;5052939;28;20098;-85
2021/06/03 01:17:05;;;;;;;6.82;3.65;;;;;;;;;;5052189;28;20467;-85
2021/06/03 01:19:37;;;;;;;7.45;3.78;;;;;;;;;;5052027;28;20120;-85
2021/06/03 01:22:16;;;;;;;5.82;3.78;;;;;;;;;;5051908;28;20023;-85
2021/06/03 01:24:46;;;;;;;7.78;4.60;;;;;;;;;;5052253;28;20036;-85
2021/06/03 01:27:12;;;;;;;7.82;4.55;;;;;;;;;;5051236;28;20032;-84
2021/06/03 01:29:40;;;;;;;10.48;4.68;;;;;;;;;;5051926;28;20017;-85
2021/06/03 01:32:06;;;;;;;8.18;4.82;;;;;;;;;;5053223;28;20070;-85
2021/06/03 01:34:31;;;;;;;9.38;4.60;;;;;;;;;;5051905;28;20021;-85
2021/06/03 01:36:56;;;;;;;8.30;5.10;;;;;;;;;;5051769;28;20135;-85
2021/06/03 01:39:22;;;;;;;5.75;4.15;;;;;;;;;;5051545;28;20024;-84
2021/06/03 01:41:47;;;;;;;12.25;5.20;;;;;;;;;;5052438;28;20024;-85
2021/06/03 01:44:13;;;;;;;7.03;4.20;;;;;;;;;;5052223;28;20025;-84
2021/06/03 01:46:38;;;;;;;6.07;3.92;;;;;;;;;;5052559;28;20017;-85
2021/06/03 01:49:04;;;;;;;8.02;3.90;;;;;;;;;;5053010;28;20380;-85
2021/06/03 01:51:30;;;;;;;6.53;4.38;;;;;;;;;;5052293;28;20017;-84
2021/06/03 01:53:55;;;;;;;5.60;4.05;;;;;;;;;;5052479;28;20468;-85
2021/06/03 01:56:20;;;;;;;5.57;4.18;;;;;;;;;;5052013;28;20158;-85
2021/06/03 01:58:46;;;;;;;7.30;4.43;;;;;;;;;;5052386;28;20052;-84
2021/06/03 02:01:12;;;;;;;6.88;4.30;;;;;;;;;;5051971;28;20017;-85
2021/06/03 02:03:37;;;;;;;9.18;4.57;;;;;;;;;;5051470;28;20720;-85
2021/06/03 02:06:04;;;;;;;9.45;4.30;;;;;;;;;;5051905;28;20021;-84
2021/06/03 02:08:29;;;;;;;12.95;4.35;;;;;;;;;;5051966;28;20785;-85
2021/06/03 02:10:55;;;;;;;10.02;4.28;;;;;;;;;;5052346;28;20096;-84
2021/06/03 02:13:25;;;;;;;8.40;4.50;;;;;;;;;;5051750;28;20555;-84
2021/06/03 02:15:56;;;;;;;7.70;4.05;;;;;;;;;;5052175;28;20400;-85
2021/06/03 02:18:23;;;;;;;12.88;4.30;;;;;;;;;;5051699;28;20020;-85
2021/06/03 02:20:50;;;;;;;6.30;3.95;;;;;;;;;;5051902;28;20025;-85
2021/06/03 02:23:16;;;;;;;5.18;3.97;;;;;;;;;;5051947;28;20024;-84
2021/06/03 02:25:41;;;;;;;9.10;4.28;;;;;;;;;;5052846;28;20025;-85
2021/06/03 02:28:07;;;;;;;7.85;4.80;;;;;;;;;;5051838;28;20017;-84
2021/06/03 02:30:33;;;;;;;6.93;4.60;;;;;;;;;;5052798;28;20044;-84
2021/06/03 02:32:59;;;;;;;4.85;3.85;;;;;;;;;;5051904;28;20021;-85
2021/06/03 02:35:25;;;;;;;7.10;3.63;;;;;;;;;;5051385;28;20070;-84
2021/06/03 02:37:50;;;;;;;6.45;4.07;;;;;;;;;;5053340;28;20491;-84
2021/06/03 02:40:17;;;;;;;10.93;4.45;;;;;;;;;;5052302;28;20464;-85
2021/06/03 02:42:43;;;;;;;5.93;4.40;;;;;;;;;;5051391;28;20028;-84
2021/06/03 02:45:13;;;;;;;6.68;4.30;;;;;;;;;;5051565;28;20472;-84
2021/06/03 02:47:39;;;;;;;4.60;3.83;;;;;;;;;;5051283;28;20107;-84
2021/06/03 02:50:08;;;;;;;5.55;3.95;;;;;;;;;;5052575;28;20098;-84
2021/06/03 02:52:33;;;;;;;8.82;4.47;;;;;;;;;;5051445;28;20036;-84
2021/06/03 02:54:58;;;;;;;5.28;3.83;;;;;;;;;;5051559;28;20017;-85
2021/06/03 02:57:24;;;;;;;10.60;4.35;;;;;;;;;;5051529;28;20568;-84
2021/06/03 02:59:49;;;;;;;4.72;3.63;;;;;;;;;;5050977;28;20419;-85
2021/06/03 03:02:14;;;;;;;7.07;4.05;;;;;;;;;;5051448;28;20108;-84
2021/06/03 03:04:39;;;;;;;10.45;4.55;;;;;;;;;;5041476;28;20040;-84
2021/06/03 03:07:04;;;;;;;8.90;4.00;;;;;;;;;;5050176;28;20403;-84
2021/06/03 03:09:29;;;;;;;6.85;4.10;;;;;;;;;;5049716;28;20013;-84
2021/06/03 03:11:55;;;;;;;6.70;3.63;;;;;;;;;;5051040;28;20013;-85
2021/06/03 03:14:20;;;;;;;6.63;4.13;;;;;;;;;;5051291;28;20384;-85
2021/06/03 03:16:45;;;;;;;5.63;4.15;;;;;;;;;;5051567;28;20103;-85
2021/06/03 03:19:10;;;;;;;5.25;4.10;;;;;;;;;;5051184;28;20048;-85
2021/06/03 03:21:36;;;;;;;7.00;4.03;;;;;;;;;;5050165;28;20028;-84
2021/06/03 03:24:01;;;;;;;8.20;4.45;;;;;;;;;;5049625;28;20021;-85
2021/06/03 03:26:26;;;;;;;4.72;4.18;;;;;;;;;;5050900;28;20021;-84
2021/06/03 03:28:51;;;;;;;6.03;3.97;;;;;;;;;;5050837;28;20017;-84
2021/06/03 03:31:16;;;;;;;6.10;4.30;;;;;;;;;;5050870;28;20025;-84
2021/06/03 03:33:42;;;;;;;7.53;4.35;;;;;;;;;;5051859;28;20025;-84
2021/06/03 03:36:07;;;;;;;8.48;3.90;;;;;;;;;;5051139;28;20017;-84
2021/06/03 03:38:32;;;;;;;5.97;4.20;;;;;;;;;;5051201;28;20024;-84
2021/06/03 03:40:57;;;;;;;6.18;4.05;;;;;;;;;;5050880;28;20091;-84
2021/06/03 03:43:23;;;;;;;8.07;4.47;;;;;;;;;;5050501;28;20024;-84
2021/06/03 03:45:48;;;;;;;7.97;4.30;;;;;;;;;;5050647;28;20465;-84
2021/06/03 03:48:13;;;;;;;8.38;4.70;;;;;;;;;;5051086;28;20468;-84
2021/06/03 03:50:38;;;;;;;7.30;4.00;;;;;;;;;;5051638;28;20067;-84
2021/06/03 03:53:04;;;;;;;6.05;4.35;;;;;;;;;;5054593;28;20517;-84
2021/06/03 03:55:30;;;;;;;6.60;4.88;;;;;;;;;;5054421;28;20074;-84
2021/06/03 03:57:55;;;;;;;7.90;4.68;;;;;;;;;;5053938;28;20116;-84
2021/06/03 04:00:22;;;;;;;9.68;4.43;;;;;;;;;;5054636;28;20064;-84
2021/06/03 04:02:48;;;;;;;10.77;4.22;;;;;;;;;;5053941;28;20086;-84
2021/06/03 04:05:13;;;;;;;8.95;4.95;;;;;;;;;;5054315;28;20100;-84
2021/06/03 04:07:39;;;;;;;5.70;4.38;;;;;;;;;;5054481;28;20037;-84
2021/06/03 04:10:08;;;;;;;9.13;5.80;;;;;;;;;;5054147;28;20528;-84
2021/06/03 04:12:34;;;;;;;8.57;4.85;;;;;;;;;;5053918;28;20024;-84
2021/06/03 04:14:59;;;;;;;10.40;5.00;;;;;;;;;;5054039;28;20025;-84
2021/06/03 04:17:24;;;;;;;8.40;5.35;;;;;;;;;;5054191;28;20103;-84
2021/06/03 04:19:50;;;;;;;7.22;4.70;;;;;;;;;;5053454;28;20078;-84
2021/06/03 04:22:15;;;;;;;9.38;5.35;;;;;;;;;;5054882;28;20090;-84
2021/06/03 04:24:40;;;;;;;7.60;5.28;;;;;;;;;;5053919;28;20037;-84
2021/06/03 04:27:05;;;;;;;6.57;4.88;;;;;;;;;;5053957;28;20434;-84
2021/06/03 04:29:31;;;;;;;10.65;5.50;;;;;;;;;;5053824;28;20043;-84
2021/06/03 04:31:56;;;;;;;8.93;5.43;;;;;;;;;;5055089;28;20017;-84
2021/06/03 04:34:21;;;;;;;13.10;6.57;;;;;;;;;;5053785;28;20024;-85
2021/06/03 04:36:46;;;;;;;7.80;6.13;;;;;;;;;;5053888;28;20104;-84
2021/06/03 04:39:11;;;;;;;10.75;6.93;;;;;;;;;;5053763;28;20024;-84
2021/06/03 04:41:37;;;;;;;12.48;7.20;;;;;;;;;;5053678;28;20021;-84
2021/06/03 04:44:02;;;;;;;13.02;6.50;;;;;;;;;;5052962;28;20029;-84
2021/06/03 04:46:27;;;;;;;12.15;6.57;;;;;;;;;;5054554;28;20809;-84
2021/06/03 04:48:54;;;;;;;10.77;6.45;;;;;;;;;;5053659;28;20021;-84
2021/06/03 04:51:19;;;;;;;10.60;7.28;;;;;;;;;;5053676;28;20491;-85
2021/06/03 04:53:44;;;;;;;10.23;6.68;;;;;;;;;;5053647;28;20044;-84
2021/06/03 04:56:09;;;;;;;10.38;7.07;;;;;;;;;;5053177;28;20021;-84
2021/06/03 04:58:34;;;;;;;12.65;7.82;;;;;;;;;;5053686;28;20349;-84
2021/06/03 05:01:00;;;;;;;13.27;7.35;;;;;;;;;;5053101;28;20022;-85
2021/06/03 05:03:25;;;;;;;12.07;6.88;;;;;;;;;;5053241;28;20537;-84
2021/06/03 05:05:50;;;;;;;12.32;7.13;;;;;;;;;;5054515;28;20460;-84
2021/06/03 05:08:16;;;;;;;10.50;7.18;;;;;;;;;;5053058;28;20025;-84
2021/06/03 05:10:41;;;;;;;12.23;7.30;;;;;;;;;;5054596;28;20029;-84
2021/06/03 05:13:06;;;;;;;10.30;7.40;;;;;;;;;;5053239;28;20392;-85
2021/06/03 05:15:31;;;;;;;11.57;7.35;;;;;;;;;;5053007;28;20028;-84
2021/06/03 05:17:57;;;;;;;13.63;6.90;;;;;;;;;;5053234;28;20085;-84
2021/06/03 05:20:23;;;;;;;12.52;7.72;;;;;;;;;;5052447;28;20075;-84
2021/06/03 05:22:49;;;;;;;13.32;7.45;;;;;;;;;;5053008;28;20025;-84
2021/06/03 05:25:16;;;;;;;12.20;7.88;;;;;;;;;;5052857;28;20017;-85
2021/06/03 05:27:41;;;;;;;10.77;7.35;;;;;;;;;;5053042;28;20021;-85
2021/06/03 05:30:08;;;;;;;14.00;7.88;;;;;;;;;;5052682;28;20017;-84
2021/06/03 05:32:33;;;;;;;12.00;8.13;;;;;;;;;;5054008;28;20028;-84
2021/06/03 05:34:59;;;;;;;13.45;7.85;;;;;;;;;;5052943;28;20021;-84
2021/06/03 05:37:24;;;;;;;12.77;8.13;;;;;;;;;;5052665;28;20083;-84
2021/06/03 05:39:49;;;;;;;16.80;7.82;;;;;;;;;;5052590;28;20025;-84
2021/06/03 05:42:15;;;;;;;16.10;8.45;;;;;;;;;;5053603;28;20017;-84
2021/06/03 05:44:40;;;;;;;14.05;8.35;;;;;;;;;;5051857;28;20078;-84
2021/06/03 05:47:05;;;;;;;15.07;8.43;;;;;;;;;;5052481;28;20017;-84
2021/06/03 05:49:30;;;;;;;13.52;9.35;;;;;;;;;;5053386;28;20033;-84
2021/06/03 05:51:55;;;;;;;11.00;8.40;;;;;;;;;;5051216;28;20029;-84
2021/06/03 05:54:21;;;;;;;14.95;10.23;;;;;;;;;;5051814;28;20024;-84
2021/06/03 05:56:46;;;;;;;13.55;8.98;;;;;;;;;;5051249;28;20482;-84
2021/06/03 05:59:11;;;;;;;17.02;9.23;;;;;;;;;;5052876;28;20029;-84
2021/06/03 06:01:37;;;;;;;13.27;9.65;;;;;;;;;;5052143;28;20017;-84
2021/06/03 06:06:28;;;;;;;17.25;8.93;;;;;;;;;;5053626;28;20040;-84
2021/06/03 06:08:54;;;;;;;16.48;9.55;;;;;;;;;;5051749;28;20036;-84
2021/06/03 06:11:20;;;;;;;17.88;10.05;;;;;;;;;;5051767;28;20020;-84
2021/06/03 06:13:46;;;;;;;15.25;9.90;;;;;;;;;;5051235;28;20476;-84
2021/06/03 06:16:11;;;;;;;18.95;9.60;;;;;;;;;;5051929;28;20547;-84
2021/06/03 06:18:37;;;;;;;14.70;7.65;;;;;;;;;;5051413;28;20021;-84
2021/06/03 06:21:02;;;;;;;16.90;10.30;;;;;;;;;;5051745;28;20024;-84
2021/06/03 06:23:28;;;;;;;15.20;9.60;;;;;;;;;;5050870;28;20029;-84
2021/06/03 06:25:53;;;;;;;18.05;10.32;;;;;;;;;;5051616;28;20016;-84
2021/06/03 06:28:18;;;;;;;15.13;8.52;;;;;;;;;;5051528;28;20048;-84
2021/06/03 06:30:44;;;;;;;19.48;10.40;;;;;;;;;;5049520;28;20457;-84
2021/06/03 06:33:09;;;;;;;22.77;10.32;;;;;;;;;;5052263;28;20427;-84
2021/06/03 06:35:34;;;;;;;13.73;9.88;;;;;;;;;;5050994;28;20029;-83
2021/06/03 06:38:00;;;;;;;21.02;10.27;;;;;;;;;;5051105;28;20111;-84
2021/06/03 06:40:26;;;;;;;12.07;7.03;;;;;;;;;;5051306;28;20388;-84
2021/06/03 06:42:54;;;;;;;17.85;11.80;;;;;;;;;;5051385;28;20048;-85
2021/06/03 06:45:24;;;;;;;18.77;10.88;;;;;;;;;;5051430;28;20479;-84
2021/06/03 06:47:49;;;;;;;20.63;11.05;;;;;;;;;;5052356;28;20021;-84
2021/06/03 06:50:14;;;;;;;16.75;11.30;;;;;;;;;;5051436;28;20024;-84
2021/06/03 06:52:40;;;;;;;16.90;10.77;;;;;;;;;;5051238;28;20108;-84
2021/06/03 06:55:06;;;;;;;17.42;11.38;;;;;;;;;;5052687;28;20419;-85
2021/06/03 06:57:31;;;;;;;24.77;11.95;;;;;;;;;;5050926;28;20067;-84
2021/06/03 06:59:57;;;;;;;19.48;11.52;;;;;;;;;;5052213;28;20025;-84
2021/06/03 07:02:22;;;;;;;17.92;11.20;;;;;;;;;;5052657;28;20049;-84
2021/06/03 07:04:47;;;;;;;23.45;12.18;;;;;;;;;;5075300;28;20033;-84
2021/06/03 07:07:12;;;;;;;23.13;12.70;;;;;;;;;;5049714;28;20053;-84
2021/06/03 07:09:38;;;;;;;21.52;12.25;;;;;;;;;;5050876;28;20024;-84
2021/06/03 07:12:04;;;;;;;18.92;12.30;;;;;;;;;;5052354;28;20022;-84
2021/06/03 07:14:29;;;;;;;20.98;12.82;;;;;;;;;;5050947;28;20021;-84
2021/06/03 07:16:54;;;;;;;18.80;10.82;;;;;;;;;;5051847;28;20396;-84
2021/06/03 07:19:19;;;;;;;21.95;13.07;;;;;;;;;;5052214;28;20427;-84
2021/06/03 07:21:45;;;;;;;21.70;12.73;;;;;;;;;;5084730;28;20111;-84
2021/06/03 07:24:10;;;;;;;21.95;13.30;;;;;;;;;;5050506;28;20094;-84
2021/06/03 07:26:35;;;;;;;17.67;11.50;;;;;;;;;;5052914;28;20032;-85
2021/06/03 07:29:04;;;;;;;28.17;15.05;;;;;;;;;;5056067;28;20031;-84
2021/06/03 07:31:31;;;;;;;21.30;13.82;;;;;;;;;;5054010;28;20025;-84
2021/06/03 07:33:56;;;;;;;26.80;14.25;;;;;;;;;;5054546;28;20017;-84
2021/06/03 07:36:21;;;;;;;19.70;12.13;;;;;;;;;;5054913;28;20032;-84
2021/06/03 07:38:46;;;;;;;23.30;14.73;;;;;;;;;;5053665;28;20557;-84
2021/06/03 07:41:14;;;;;;;22.48;14.43;;;;;;;;;;5054258;28;20049;-84
2021/06/03 07:43:39;;;;;;;21.92;13.77;;;;;;;;;;5054196;28;20017;-83
2021/06/03 07:46:04;;;;;;;27.13;14.65;;;;;;;;;;5053014;28;20071;-83
2021/06/03 07:48:30;;;;;;;24.20;15.57;;;;;;;;;;5055434;28;20517;-83
2021/06/03 07:50:55;;;;;;;29.35;14.57;;;;;;;;;;5053973;28;20032;-84
2021/06/03 07:53:20;;;;;;;20.60;12.05;;;;;;;;;;5054245;28;20052;-84
2021/06/03 07:55:45;;;;;;;22.70;11.40;;;;;;;;;;5054930;28;20439;-84
2021/06/03 07:58:12;;;;;;;21.27;12.75;;;;;;;;;;5054722;28;20357;-83
2021/06/03 08:00:39;;;;;;;23.10;12.68;;;;;;;;;;5054313;28;20029;-83
2021/06/03 08:03:05;;;;;;;16.27;10.20;;;;;;;;;;5054195;28;20116;-84
2021/06/03 08:05:30;;;;;;;25.90;15.10;;;;;;;;;;5055392;28;20154;-83
2021/06/03 08:07:56;;;;;;;28.42;16.30;;;;;;;;;;5054146;28;20107;-84
2021/06/03 08:10:24;;;;;;;24.65;14.43;;;;;;;;;;5053756;28;20009;-83
2021/06/03 08:12:50;;;;;;;25.98;16.00;;;;;;;;;;5054280;28;20018;-84
2021/06/03 08:15:16;;;;;;;31.38;17.13;;;;;;;;;;5053858;28;20575;-84
2021/06/03 08:17:41;;;;;;;26.13;15.40;;;;;;;;;;5053588;28;20104;-84
2021/06/03 08:20:09;;;;;;;19.95;12.98;;;;;;;;;;5054185;28;20017;-84
2021/06/03 08:22:34;;;;;;;25.63;16.33;;;;;;;;;;5054163;28;20415;-84
2021/06/03 08:24:59;;;;;;;23.27;15.35;;;;;;;;;;5087752;28;20055;-84
2021/06/03 08:27:24;;;;;;;26.65;16.15;;;;;;;;;;5053028;28;20021;-83
2021/06/03 08:29:49;;;;;;;25.65;16.13;;;;;;;;;;5052908;28;20017;-84
2021/06/03 08:32:14;;;;;;;30.48;17.67;;;;;;;;;;5054666;28;20091;-85
2021/06/03 08:34:40;;;;;;;27.38;15.98;;;;;;;;;;5054010;28;20029;-84
2021/06/03 08:37:05;;;;;;;28.55;17.92;;;;;;;;;;5053288;28;20021;-84
2021/06/03 08:39:30;;;;;;;28.60;15.23;;;;;;;;;;5053877;28;20025;-84
2021/06/03 08:41:57;;;;;;;26.10;17.50;;;;;;;;;;5053687;28;20021;-84
2021/06/03 08:44:23;;;;;;;32.72;17.73;;;;;;;;;;5053300;28;20032;-84
2021/06/03 08:46:48;;;;;;;28.67;17.20;;;;;;;;;;5053783;28;20021;-84
2021/06/03 08:49:13;;;;;;;25.52;17.25;;;;;;;;;;5053323;28;20017;-85
2021/06/03 08:51:39;;;;;;;27.42;18.08;;;;;;;;;;5053741;28;20017;-85
2021/06/03 08:54:04;;;;;;;28.50;16.63;;;;;;;;;;5053749;28;20025;-84
2021/06/03 08:56:29;;;;;;;25.27;16.17;;;;;;;;;;5053349;28;20028;-84
2021/06/03 08:58:56;;;;;;;26.40;15.50;;;;;;;;;;5053684;28;20472;-84
2021/06/03 09:01:22;;;;;;;26.88;17.08;;;;;;;;;;5053566;28;20037;-84
2021/06/03 09:03:47;;;;;;;29.85;15.95;;;;;;;;;;5054866;28;20530;-84
2021/06/03 09:06:15;;;;;;;24.52;16.58;;;;;;;;;;5054794;28;20013;-84
2021/06/03 09:08:41;;;;;;;26.17;17.73;;;;;;;;;;5053323;28;20017;-83
2021/06/03 09:11:11;;;;;;;32.47;19.00;;;;;;;;;;5053463;28;20067;-86
2021/06/03 09:13:41;;;;;;;28.00;16.67;;;;;;;;;;5053341;28;20061;-85
2021/06/03 09:16:09;;;;;;;30.70;18.23;;;;;;;;;;5054788;28;20062;-86
2021/06/03 09:18:39;;;;;;;15.60;10.43;;;;;;;;;;5086820;28;20103;-84
2021/06/03 09:21:24;;;;;;;19.85;12.82;;;;;;;;;;5052972;28;20070;-84
2021/06/03 09:24:02;;;;;;;30.08;17.08;;;;;;;;;;5052723;28;20107;-84
2021/06/03 09:26:29;;;;;;;27.48;19.13;;;;;;;;;;5053284;28;20112;-84
2021/06/03 09:28:56;;;;;;;32.42;18.08;;;;;;;;;;5052617;28;20017;-85
2021/06/03 09:31:31;;;;;;;22.52;13.80;;;;;;;;;;5054017;28;20464;-85
2021/06/03 09:33:56;;;;;;;28.35;14.90;;;;;;;;;;5052877;28;20028;-84
2021/06/03 09:36:26;;;;;;;24.38;14.98;;;;;;;;;;5086582;28;20009;-84
2021/06/03 09:38:52;;;;;;;19.85;14.70;;;;;;;;;;5052760;28;20473;-84
2021/06/03 09:41:17;;;;;;;31.13;15.70;;;;;;;;;;5054083;28;20071;-85
2021/06/03 09:43:43;;;;;;;19.25;10.93;;;;;;;;;;5052449;28;20384;-84
2021/06/03 09:46:08;;;;;;;22.45;14.38;;;;;;;;;;5052654;28;20074;-84
2021/06/03 09:48:35;;;;;;;23.77;16.13;;;;;;;;;;5051808;28;20422;-84
2021/06/03 09:51:19;;;;;;;22.08;15.25;;;;;;;;;;5052625;28;20464;-84
2021/06/03 09:53:52;;;;;;;22.13;15.05;;;;;;;;;;5086345;28;20059;-84
2021/06/03 09:56:21;;;;;;;22.40;13.95;;;;;;;;;;5051903;28;20017;-84
2021/06/03 09:58:46;;;;;;;30.67;15.98;;;;;;;;;;5052699;28;20021;-84
2021/06/03 10:01:12;;;;;;;24.13;14.80;;;;;;;;;;5048900;28;20024;-83
2021/06/03 10:03:50;;;;;;;21.83;13.52;;;;;;;;;;5052510;28;20012;-84
2021/06/03 10:06:15;;;;;;;24.40;14.02;;;;;;;;;;5053757;28;20021;-84
2021/06/03 10:08:47;;;;;;;25.73;14.07;;;;;;;;;;5052323;28;20442;-84
2021/06/03 10:11:14;;;;;;;22.88;14.90;;;;;;;;;;5053079;28;20075;-84
2021/06/03 10:13:59;;;;;;;21.02;13.38;;;;;;;;;;5051715;28;20029;-86
2021/06/03 10:16:31;;;;;;;23.70;13.95;;;;;;;;;;5052132;28;20539;-87
2021/06/03 10:18:56;;;;;;;;;;;;;;;;;;5052259;28;20477;-86
2021/06/03 10:21:22;;;;;;;26.10;13.00;;;;;;;;;;5051751;28;19915;-86
2021/06/03 10:23:47;;;;;;;19.83;11.75;;;;;;;;;;5051726;28;20028;-86
2021/06/03 10:26:12;;;;;;;20.30;11.15;;;;;;;;;;5051181;28;20028;-85
2021/06/03 10:28:39;;;;;;;20.45;11.57;;;;;;;;;;5050819;28;20021;-85
2021/06/03 10:31:08;;;;;;;17.23;11.27;;;;;;;;;;5054595;28;20032;-85
2021/06/03 10:33:35;;;;;;;20.00;13.45;;;;;;;;;;5056801;28;20032;-85
2021/06/03 10:36:01;;;;;;;19.05;11.48;;;;;;;;;;5052002;28;20120;-86
2021/06/03 10:38:27;;;;;;;20.13;12.27;;;;;;;;;;5052053;28;20075;-86
2021/06/03 10:40:53;;;;;;;29.17;11.23;;;;;;;;;;5052909;28;20025;-86
2021/06/03 10:43:18;;;;;;;21.60;11.68;;;;;;;;;;5052904;28;20024;-86
2021/06/03 10:45:45;;;;;;;24.25;12.60;;;;;;;;;;5051080;28;20040;-86
2021/06/03 10:48:10;;;;;;;26.80;11.57;;;;;;;;;;5051874;28;20155;-86
2021/06/03 10:50:40;;;;;;;22.23;13.73;;;;;;;;;;5051692;28;20067;-87
2021/06/03 10:53:08;;;;;;;18.95;12.82;;;;;;;;;;5053344;28;20025;-86
2021/06/03 10:55:38;;;;;;;19.52;11.43;;;;;;;;;;5050909;28;20021;-86
2021/06/03 10:58:05;;;;;;;19.92;12.43;;;;;;;;;;5048254;28;20052;-86
2021/06/03 11:00:44;;;;;;;24.58;12.82;;;;;;;;;;5053911;28;20024;-86
2021/06/03 11:03:11;;;;;;;34.45;12.52;;;;;;;;;;5055228;28;20040;-86
2021/06/03 11:05:43;;;;;;;22.95;12.85;;;;;;;;;;5055353;28;20017;-86
2021/06/03 11:08:23;;;;;;;19.48;11.82;;;;;;;;;;5060180;28;20020;-86
2021/06/03 11:10:49;;;;;;;21.20;12.30;;;;;;;;;;5057407;28;20025;-86
2021/06/03 11:13:19;;;;;;;24.25;12.00;;;;;;;;;;5054708;28;20044;-86
2021/06/03 11:16:03;;;;;;;19.65;12.13;;;;;;;;;;5055693;28;20349;-86
2021/06/03 11:18:47;;;;;;;20.42;12.95;;;;;;;;;;5089189;28;20021;-86
2021/06/03 11:21:31;;;;;;;22.70;15.98;;;;;;;;;;5057016;28;20049;-86
2021/06/03 11:24:00;;;;;;;22.00;11.93;;;;;;;;;;5054858;28;20115;-86
2021/06/03 11:26:38;;;;;;;16.90;10.23;;;;;;;;;;5055327;28;20025;-86
2021/06/03 11:29:07;;;;;;;24.65;16.13;;;;;;;;;;5054704;28;20021;-87
2021/06/03 11:31:33;;;;;;;22.13;13.88;;;;;;;;;;5054336;28;20017;-86
2021/06/03 11:34:18;;;;;;;19.00;13.43;;;;;;;;;;5054385;28;20415;-86
2021/06/03 11:36:55;;;;;;;32.85;14.80;;;;;;;;;;5047556;28;20028;-84
2021/06/03 11:39:32;;;;;;;18.08;12.38;;;;;;;;;;5053480;28;20025;-85
2021/06/03 11:42:16;;;;;;;22.63;11.93;;;;;;;;;;5056049;28;20017;-84
2021/06/03 11:45:01;;;;;;;21.42;12.02;;;;;;;;;;5055001;28;20041;-85
2021/06/03 11:47:27;;;;;;;18.42;13.30;;;;;;;;;;5059159;28;20405;-85
2021/06/03 11:49:53;;;;;;;21.77;13.18;;;;;;;;;;5055105;28;20013;-85
2021/06/03 11:52:18;;;;;;;26.20;13.98;;;;;;;;;;5056102;28;20086;-84
2021/06/03 11:54:51;;;;;;;26.13;13.93;;;;;;;;;;5054852;28;20634;-85
2021/06/03 11:57:16;;;;;;;22.85;12.77;;;;;;;;;;5048665;28;20028;-85
2021/06/03 11:59:55;;;;;;;20.25;12.85;;;;;;;;;;5055754;28;20021;-85
2021/06/03 12:02:40;;;;;;;23.90;12.20;;;;;;;;;;5056251;28;20017;-85
2021/06/03 12:05:08;;;;;;;20.55;12.73;;;;;;;;;;5054159;28;20033;-85
2021/06/03 12:07:50;;;;;;;21.58;11.48;;;;;;;;;;5088430;28;20021;-85
2021/06/03 12:10:36;;;;;;;14.65;9.27;;;;;;;;;;5053838;28;20052;-84
2021/06/03 12:13:01;;;;;;;16.08;9.20;;;;;;;;;;5045384;28;20033;-85
2021/06/03 12:15:28;;;;;;;16.85;9.18;;;;;;;;;;5055279;28;20032;-85
2021/06/03 12:17:54;;;;;;;22.65;10.18;;;;;;;;;;5055899;28;20013;-85
2021/06/03 12:20:20;;;;;;;20.85;10.18;;;;;;;;;;5054413;28;20066;-85
2021/06/03 12:22:46;;;;;;;17.98;10.45;;;;;;;;;;5055900;28;20024;-85
2021/06/03 12:25:11;;;;;;;17.70;10.45;;;;;;;;;;5054319;28;20476;-85
2021/06/03 12:27:41;;;;;;;21.98;10.02;;;;;;;;;;5055634;28;20032;-85
2021/06/03 12:30:12;;;;;;;15.50;9.45;;;;;;;;;;5055158;28;20372;-85
2021/06/03 12:32:38;;;;;;;19.67;11.35;;;;;;;;;;5054413;28;20461;-85
2021/06/03 12:35:04;;;;;;;18.25;11.50;;;;;;;;;;5054368;28;20032;-85
2021/06/03 12:37:31;;;;;;;23.02;13.88;;;;;;;;;;5054121;28;20017;-85
2021/06/03 12:39:57;;;;;;;22.77;13.77;;;;;;;;;;5054199;28;20029;-85
2021/06/03 12:42:24;;;;;;;20.25;12.57;;;;;;;;;;5053592;28;20025;-85
2021/06/03 12:45:09;;;;;;;20.90;13.02;;;;;;;;;;5054925;28;20021;-85
2021/06/03 12:47:35;;;;;;;20.80;11.45;;;;;;;;;;5053838;28;20017;-85
2021/06/03 12:50:03;;;;;;;19.23;11.32;;;;;;;;;;5055053;28;20045;-85
2021/06/03 12:52:28;;;;;;;18.83;9.85;;;;;;;;;;5053351;28;20048;-85
2021/06/03 12:54:56;;;;;;;17.48;9.68;;;;;;;;;;5050813;28;20052;-85
2021/06/03 12:57:24;;;;;;;17.23;9.32;;;;;;;;;;5054283;28;20025;-85
2021/06/03 12:59:52;;;;;;;21.17;12.90;;;;;;;;;;5053737;28;20471;-85
2021/06/03 13:02:17;;;;;;;20.27;10.75;;;;;;;;;;5053571;28;20021;-85
2021/06/03 13:04:47;;;;;;;22.23;11.05;;;;;;;;;;5053053;28;20025;-84
2021/06/03 13:07:13;;;;;;;19.55;10.85;;;;;;;;;;5053612;28;20013;-84
2021/06/03 13:09:39;;;;;;;20.80;10.18;;;;;;;;;;5053020;28;20526;-84
2021/06/03 13:12:14;;;;;;;20.92;10.13;;;;;;;;;;5053211;28;20013;-84
2021/06/03 13:14:44;;;;;;;16.95;10.02;;;;;;;;;;5052858;28;20025;-84
2021/06/03 13:17:11;;;;;;;14.38;8.88;;;;;;;;;;5053337;28;20357;-84
2021/06/03 13:19:37;;;;;;;13.68;8.43;;;;;;;;;;5054308;28;20025;-84
2021/06/03 13:22:03;;;;;;;12.90;8.90;;;;;;;;;;5053009;28;20534;-84
2021/06/03 13:24:30;;;;;;;19.90;9.27;;;;;;;;;;5053494;28;20056;-84
2021/06/03 13:27:00;;;;;;;18.50;8.52;;;;;;;;;;5051292;28;20024;-84
2021/06/03 13:29:25;;;;;;;16.88;8.48;;;;;;;;;;5053067;28;20009;-84
2021/06/03 13:31:52;;;;;;;17.45;8.77;;;;;;;;;;5054090;28;20017;-84
2021/06/03 13:34:46;;;;;;;30.65;9.10;;;;;;;;;;5052719;28;20103;-85
2021/06/03 13:37:13;;;;;;;14.52;8.75;;;;;;;;;;5048268;28;20120;-84
2021/06/03 13:39:44;;;;;;;21.30;9.90;;;;;;;;;;5054358;28;20107;-84
2021/06/03 13:42:11;;;;;;;27.02;10.50;;;;;;;;;;5052854;28;20021;-84
2021/06/03 13:45:03;;;;;;;13.52;9.07;;;;;;;;;;5052340;28;20040;-84
2021/06/03 13:47:43;;;;;;;20.63;10.52;;;;;;;;;;5051269;28;20029;-84
2021/06/03 13:50:18;;;;;;;18.23;9.68;;;;;;;;;;5084781;28;20074;-84
2021/06/03 13:52:47;;;;;;;16.05;9.52;;;;;;;;;;5053311;28;20365;-84
2021/06/03 13:55:14;;;;;;;14.85;9.00;;;;;;;;;;5052170;28;20494;-84
2021/06/03 13:57:39;;;;;;;13.82;9.60;;;;;;;;;;5052264;28;20483;-84
2021/06/03 14:00:05;;;;;;;16.85;11.48;;;;;;;;;;5052390;28;20087;-84
2021/06/03 14:02:30;;;;;;;17.77;10.25;;;;;;;;;;5053460;28;20084;-84
2021/06/03 14:04:55;;;;;;;16.23;9.70;;;;;;;;;;5052159;28;20024;-84
2021/06/03 14:07:20;;;;;;;20.35;10.15;;;;;;;;;;5052267;28;20537;-84
2021/06/03 14:09:46;;;;;;;15.18;8.77;;;;;;;;;;5052176;28;20060;-84
2021/06/03 14:12:27;;;;;;;16.25;9.32;;;;;;;;;;5052470;28;20009;-84
2021/06/03 14:15:01;;;;;;;19.77;8.75;;;;;;;;;;5051981;28;20087;-84
2021/06/03 14:17:28;;;;;;;15.57;8.32;;;;;;;;;;5051928;28;20060;-84
2021/06/03 14:19:53;;;;;;;18.45;9.10;;;;;;;;;;5051668;28;20025;-84
2021/06/03 14:22:23;;;;;;;14.38;8.90;;;;;;;;;;5052026;28;20499;-84
2021/06/03 14:24:54;;;;;;;24.73;9.20;;;;;;;;;;5051688;28;20151;-84
2021/06/03 14:27:24;;;;;;;14.30;9.27;;;;;;;;;;5052949;28;20017;-84
2021/06/03 14:29:55;;;;;;;16.75;7.82;;;;;;;;;;5053548;28;20025;-84
2021/06/03 14:32:53;;;;;;;15.70;9.13;;;;;;;;;;5053220;28;20009;-85